sensor_id;sensor_type;location;lat;lon;timestamp;P1;durP1;ratioP1;P2;durP2;ratioP2
78916;SDS011;68315;48.608;11.436;2023-06-22T00:00:55;5.13;;;4.45;;
78916;SDS011;68315;48.608;11.436;2023-06-22T00:03:21;7.03;;;5.35;;
78916;SDS011;68315;48.608;11.436;2023-06-22T00:05:47;7.30;;;4.85;;
78916;SDS011;68315;48.608;11.436;2023-06-22T00:08:13;5.88;;;5.03;;
78916;SDS011;68315;48.608;11.436;2023-06-22T00:10:39;6.88;;;4.70;;
78916;SDS011;68315;48.608;11.436;2023-06-22T00:13:05;5.95;;;4.93;;
78916;SDS011;68315;48.608;11.436;2023-06-22T00:15:32;4.53;;;4.05;;
78916;SDS011;68315;48.608;11.436;2023-06-22T00:17:58;4.60;;;3.42;;
78916;SDS011;68315;48.608;11.436;2023-06-22T00:20:24;5.03;;;4.53;;
78916;SDS011;68315;48.608;11.436;2023-06-22T00:22:53;6.45;;;4.30;;
78916;SDS011;68315;48.608;11.436;2023-06-22T00:25:22;7.95;;;4.93;;
78916;SDS011;68315;48.608;11.436;2023-06-22T00:27:48;4.70;;;4.20;;
78916;SDS011;68315;48.608;11.436;2023-06-22T00:30:15;4.95;;;4.18;;
78916;SDS011;68315;48.608;11.436;2023-06-22T00:32:40;6.22;;;4.95;;
78916;SDS011;68315;48.608;11.436;2023-06-22T00:35:05;6.38;;;4.13;;
78916;SDS011;68315;48.608;11.436;2023-06-22T00:37:31;5.70;;;5.10;;
78916;SDS011;68315;48.608;11.436;2023-06-22T00:39:56;8.77;;;5.25;;
78916;SDS011;68315;48.608;11.436;2023-06-22T00:42:22;8.50;;;5.53;;
78916;SDS011;68315;48.608;11.436;2023-06-22T00:44:47;6.47;;;4.53;;
78916;SDS011;68315;48.608;11.436;2023-06-22T00:47:13;7.07;;;4.20;;
78916;SDS011;68315;48.608;11.436;2023-06-22T00:49:40;5.18;;;3.85;;
78916;SDS011;68315;48.608;11.436;2023-06-22T00:52:06;6.53;;;4.72;;
78916;SDS011;68315;48.608;11.436;2023-06-22T00:54:38;9.68;;;5.82;;
78916;SDS011;68315;48.608;11.436;2023-06-22T00:57:04;6.88;;;5.50;;
78916;SDS011;68315;48.608;11.436;2023-06-22T00:59:29;9.48;;;5.30;;
78916;SDS011;68315;48.608;11.436;2023-06-22T01:01:55;7.60;;;5.28;;
78916;SDS011;68315;48.608;11.436;2023-06-22T01:04:24;6.07;;;4.53;;
78916;SDS011;68315;48.608;11.436;2023-06-22T01:07:02;6.97;;;4.15;;
78916;SDS011;68315;48.608;11.436;2023-06-22T01:09:40;7.72;;;5.93;;
78916;SDS011;68315;48.608;11.436;2023-06-22T01:12:14;7.07;;;5.15;;
78916;SDS011;68315;48.608;11.436;2023-06-22T01:14:42;9.63;;;5.75;;
78916;SDS011;68315;48.608;11.436;2023-06-22T01:17:10;5.28;;;4.25;;
78916;SDS011;68315;48.608;11.436;2023-06-22T01:19:48;5.65;;;4.60;;
78916;SDS011;68315;48.608;11.436;2023-06-22T01:22:20;7.28;;;4.93;;
78916;SDS011;68315;48.608;11.436;2023-06-22T01:24:51;6.55;;;5.05;;
78916;SDS011;68315;48.608;11.436;2023-06-22T01:30:06;5.60;;;4.82;;
78916;SDS011;68315;48.608;11.436;2023-06-22T01:32:35;6.65;;;4.05;;
78916;SDS011;68315;48.608;11.436;2023-06-22T01:35:03;6.78;;;4.80;;
78916;SDS011;68315;48.608;11.436;2023-06-22T01:37:31;9.45;;;4.75;;
78916;SDS011;68315;48.608;11.436;2023-06-22T01:39:59;6.57;;;5.15;;
78916;SDS011;68315;48.608;11.436;2023-06-22T01:42:26;6.55;;;4.90;;
78916;SDS011;68315;48.608;11.436;2023-06-22T01:44:52;5.65;;;4.00;;
78916;SDS011;68315;48.608;11.436;2023-06-22T01:47:19;6.68;;;4.93;;
78916;SDS011;68315;48.608;11.436;2023-06-22T01:49:45;7.03;;;4.97;;
78916;SDS011;68315;48.608;11.436;2023-06-22T01:52:11;8.95;;;4.95;;
78916;SDS011;68315;48.608;11.436;2023-06-22T01:54:37;7.65;;;5.18;;
78916;SDS011;68315;48.608;11.436;2023-06-22T01:57:03;5.68;;;4.43;;
78916;SDS011;68315;48.608;11.436;2023-06-22T01:59:31;5.95;;;4.55;;
78916;SDS011;68315;48.608;11.436;2023-06-22T02:02:04;6.18;;;4.13;;
78916;SDS011;68315;48.608;11.436;2023-06-22T02:04:36;9.45;;;6.50;;
78916;SDS011;68315;48.608;11.436;2023-06-22T02:07:05;8.38;;;5.50;;
78916;SDS011;68315;48.608;11.436;2023-06-22T02:09:36;6.97;;;5.30;;
78916;SDS011;68315;48.608;11.436;2023-06-22T02:12:04;7.60;;;5.47;;
78916;SDS011;68315;48.608;11.436;2023-06-22T02:14:31;8.93;;;6.00;;
78916;SDS011;68315;48.608;11.436;2023-06-22T02:16:57;9.32;;;6.38;;
78916;SDS011;68315;48.608;11.436;2023-06-22T02:19:26;8.43;;;4.93;;
78916;SDS011;68315;48.608;11.436;2023-06-22T02:21:52;6.97;;;5.40;;
78916;SDS011;68315;48.608;11.436;2023-06-22T02:24:17;8.13;;;5.63;;
78916;SDS011;68315;48.608;11.436;2023-06-22T02:26:43;7.57;;;5.78;;
78916;SDS011;68315;48.608;11.436;2023-06-22T02:29:10;8.35;;;6.45;;
78916;SDS011;68315;48.608;11.436;2023-06-22T02:31:35;8.75;;;5.97;;
78916;SDS011;68315;48.608;11.436;2023-06-22T02:34:00;9.02;;;5.50;;
78916;SDS011;68315;48.608;11.436;2023-06-22T02:36:26;7.97;;;5.60;;
78916;SDS011;68315;48.608;11.436;2023-06-22T02:38:55;6.80;;;5.53;;
78916;SDS011;68315;48.608;11.436;2023-06-22T02:41:25;8.75;;;5.88;;
78916;SDS011;68315;48.608;11.436;2023-06-22T02:43:51;8.13;;;5.28;;
78916;SDS011;68315;48.608;11.436;2023-06-22T02:46:16;6.97;;;4.78;;
78916;SDS011;68315;48.608;11.436;2023-06-22T02:48:41;9.88;;;6.22;;
78916;SDS011;68315;48.608;11.436;2023-06-22T02:51:07;7.32;;;5.85;;
78916;SDS011;68315;48.608;11.436;2023-06-22T02:53:33;8.23;;;5.75;;
78916;SDS011;68315;48.608;11.436;2023-06-22T02:55:58;8.07;;;6.15;;
78916;SDS011;68315;48.608;11.436;2023-06-22T02:58:23;8.07;;;5.18;;
78916;SDS011;68315;48.608;11.436;2023-06-22T03:00:49;7.15;;;5.05;;
78916;SDS011;68315;48.608;11.436;2023-06-22T03:03:18;7.07;;;4.82;;
78916;SDS011;68315;48.608;11.436;2023-06-22T03:05:44;8.20;;;6.30;;
78916;SDS011;68315;48.608;11.436;2023-06-22T03:08:09;6.88;;;5.80;;
78916;SDS011;68315;48.608;11.436;2023-06-22T03:10:34;7.82;;;5.70;;
78916;SDS011;68315;48.608;11.436;2023-06-22T03:13:00;6.68;;;5.38;;
78916;SDS011;68315;48.608;11.436;2023-06-22T03:15:25;7.72;;;5.32;;
78916;SDS011;68315;48.608;11.436;2023-06-22T03:17:51;8.02;;;6.07;;
78916;SDS011;68315;48.608;11.436;2023-06-22T03:20:16;7.07;;;5.50;;
78916;SDS011;68315;48.608;11.436;2023-06-22T03:22:41;11.02;;;6.50;;
78916;SDS011;68315;48.608;11.436;2023-06-22T03:25:08;8.32;;;5.68;;
78916;SDS011;68315;48.608;11.436;2023-06-22T03:27:40;7.30;;;5.15;;
78916;SDS011;68315;48.608;11.436;2023-06-22T03:30:07;12.00;;;7.38;;
78916;SDS011;68315;48.608;11.436;2023-06-22T03:32:33;8.65;;;6.50;;
78916;SDS011;68315;48.608;11.436;2023-06-22T03:34:58;9.18;;;6.07;;
78916;SDS011;68315;48.608;11.436;2023-06-22T03:37:24;8.25;;;6.80;;
78916;SDS011;68315;48.608;11.436;2023-06-22T03:39:50;6.95;;;5.72;;
78916;SDS011;68315;48.608;11.436;2023-06-22T03:42:16;9.63;;;6.43;;
78916;SDS011;68315;48.608;11.436;2023-06-22T03:44:41;8.05;;;6.43;;
78916;SDS011;68315;48.608;11.436;2023-06-22T03:47:07;10.00;;;7.00;;
78916;SDS011;68315;48.608;11.436;2023-06-22T03:49:32;7.57;;;6.18;;
78916;SDS011;68315;48.608;11.436;2023-06-22T03:51:59;7.45;;;5.88;;
78916;SDS011;68315;48.608;11.436;2023-06-22T03:54:26;7.97;;;5.72;;
78916;SDS011;68315;48.608;11.436;2023-06-22T03:56:51;11.20;;;6.80;;
78916;SDS011;68315;48.608;11.436;2023-06-22T03:59:16;9.32;;;7.18;;
78916;SDS011;68315;48.608;11.436;2023-06-22T04:01:42;8.18;;;6.90;;
78916;SDS011;68315;48.608;11.436;2023-06-22T04:04:08;10.20;;;7.45;;
78916;SDS011;68315;48.608;11.436;2023-06-22T04:06:33;12.23;;;9.02;;
78916;SDS011;68315;48.608;11.436;2023-06-22T04:08:59;8.90;;;7.05;;
78916;SDS011;68315;48.608;11.436;2023-06-22T04:11:25;14.15;;;9.82;;
78916;SDS011;68315;48.608;11.436;2023-06-22T04:13:51;10.40;;;8.45;;
78916;SDS011;68315;48.608;11.436;2023-06-22T04:16:16;9.43;;;7.32;;
78916;SDS011;68315;48.608;11.436;2023-06-22T04:18:41;9.30;;;6.93;;
78916;SDS011;68315;48.608;11.436;2023-06-22T04:21:14;8.50;;;6.43;;
78916;SDS011;68315;48.608;11.436;2023-06-22T04:23:39;11.85;;;9.63;;
78916;SDS011;68315;48.608;11.436;2023-06-22T04:26:05;9.68;;;7.65;;
78916;SDS011;68315;48.608;11.436;2023-06-22T04:28:30;10.48;;;7.68;;
78916;SDS011;68315;48.608;11.436;2023-06-22T04:31:00;8.60;;;6.60;;
78916;SDS011;68315;48.608;11.436;2023-06-22T04:33:27;13.63;;;10.35;;
78916;SDS011;68315;48.608;11.436;2023-06-22T04:35:54;14.77;;;10.60;;
78916;SDS011;68315;48.608;11.436;2023-06-22T04:38:19;12.65;;;9.30;;
78916;SDS011;68315;48.608;11.436;2023-06-22T04:40:46;12.70;;;9.13;;
78916;SDS011;68315;48.608;11.436;2023-06-22T04:43:11;13.27;;;9.45;;
78916;SDS011;68315;48.608;11.436;2023-06-22T04:45:37;12.10;;;9.23;;
78916;SDS011;68315;48.608;11.436;2023-06-22T04:48:03;12.60;;;7.75;;
78916;SDS011;68315;48.608;11.436;2023-06-22T04:50:29;11.27;;;8.13;;
78916;SDS011;68315;48.608;11.436;2023-06-22T04:52:54;17.80;;;11.15;;
78916;SDS011;68315;48.608;11.436;2023-06-22T04:55:20;11.35;;;9.07;;
78916;SDS011;68315;48.608;11.436;2023-06-22T04:57:45;11.38;;;9.25;;
78916;SDS011;68315;48.608;11.436;2023-06-22T05:00:17;13.48;;;11.02;;
78916;SDS011;68315;48.608;11.436;2023-06-22T05:02:44;9.68;;;8.65;;
78916;SDS011;68315;48.608;11.436;2023-06-22T05:05:11;14.93;;;10.63;;
78916;SDS011;68315;48.608;11.436;2023-06-22T05:07:42;16.08;;;13.35;;
78916;SDS011;68315;48.608;11.436;2023-06-22T05:10:09;11.63;;;10.43;;
78916;SDS011;68315;48.608;11.436;2023-06-22T05:12:36;15.57;;;10.95;;
78916;SDS011;68315;48.608;11.436;2023-06-22T05:15:01;16.40;;;12.77;;
78916;SDS011;68315;48.608;11.436;2023-06-22T05:17:26;13.18;;;9.50;;
78916;SDS011;68315;48.608;11.436;2023-06-22T05:19:52;15.23;;;12.52;;
78916;SDS011;68315;48.608;11.436;2023-06-22T05:22:17;14.43;;;11.40;;
78916;SDS011;68315;48.608;11.436;2023-06-22T05:24:43;20.25;;;15.57;;
78916;SDS011;68315;48.608;11.436;2023-06-22T05:27:09;17.35;;;12.45;;
78916;SDS011;68315;48.608;11.436;2023-06-22T05:29:35;16.42;;;11.32;;
78916;SDS011;68315;48.608;11.436;2023-06-22T05:32:01;20.30;;;15.38;;
78916;SDS011;68315;48.608;11.436;2023-06-22T05:34:26;22.95;;;19.40;;
78916;SDS011;68315;48.608;11.436;2023-06-22T05:36:51;18.38;;;16.08;;
78916;SDS011;68315;48.608;11.436;2023-06-22T05:39:17;20.85;;;16.58;;
78916;SDS011;68315;48.608;11.436;2023-06-22T05:41:42;25.58;;;19.73;;
78916;SDS011;68315;48.608;11.436;2023-06-22T05:44:08;31.45;;;22.35;;
78916;SDS011;68315;48.608;11.436;2023-06-22T05:46:33;24.50;;;19.42;;
78916;SDS011;68315;48.608;11.436;2023-06-22T05:48:59;24.00;;;17.35;;
78916;SDS011;68315;48.608;11.436;2023-06-22T05:51:24;20.98;;;17.48;;
78916;SDS011;68315;48.608;11.436;2023-06-22T05:53:49;17.60;;;14.85;;
78916;SDS011;68315;48.608;11.436;2023-06-22T05:56:17;26.35;;;18.35;;
78916;SDS011;68315;48.608;11.436;2023-06-22T05:58:43;22.33;;;15.70;;
78916;SDS011;68315;48.608;11.436;2023-06-22T06:01:08;24.08;;;18.00;;
78916;SDS011;68315;48.608;11.436;2023-06-22T06:03:33;19.38;;;15.63;;
78916;SDS011;68315;48.608;11.436;2023-06-22T06:05:59;18.65;;;15.10;;
78916;SDS011;68315;48.608;11.436;2023-06-22T06:08:24;17.10;;;13.02;;
78916;SDS011;68315;48.608;11.436;2023-06-22T06:10:50;15.45;;;13.85;;
78916;SDS011;68315;48.608;11.436;2023-06-22T06:13:17;17.23;;;12.32;;
78916;SDS011;68315;48.608;11.436;2023-06-22T06:15:43;13.68;;;11.95;;
78916;SDS011;68315;48.608;11.436;2023-06-22T06:18:08;17.33;;;13.20;;
78916;SDS011;68315;48.608;11.436;2023-06-22T06:20:34;12.63;;;10.63;;
78916;SDS011;68315;48.608;11.436;2023-06-22T06:22:59;13.85;;;8.65;;
78916;SDS011;68315;48.608;11.436;2023-06-22T06:25:24;15.88;;;8.85;;
78916;SDS011;68315;48.608;11.436;2023-06-22T06:27:51;10.90;;;7.82;;
78916;SDS011;68315;48.608;11.436;2023-06-22T06:30:19;11.52;;;7.38;;
78916;SDS011;68315;48.608;11.436;2023-06-22T06:32:50;8.40;;;6.60;;
78916;SDS011;68315;48.608;11.436;2023-06-22T06:35:16;12.00;;;6.85;;
78916;SDS011;68315;48.608;11.436;2023-06-22T06:37:42;8.43;;;6.68;;
78916;SDS011;68315;48.608;11.436;2023-06-22T06:40:16;9.52;;;6.40;;
78916;SDS011;68315;48.608;11.436;2023-06-22T06:42:49;8.32;;;6.18;;
78916;SDS011;68315;48.608;11.436;2023-06-22T06:45:18;10.80;;;6.32;;
78916;SDS011;68315;48.608;11.436;2023-06-22T06:47:45;10.75;;;6.43;;
78916;SDS011;68315;48.608;11.436;2023-06-22T06:50:11;9.60;;;6.05;;
78916;SDS011;68315;48.608;11.436;2023-06-22T06:52:37;9.38;;;6.22;;
78916;SDS011;68315;48.608;11.436;2023-06-22T06:55:02;9.18;;;6.90;;
78916;SDS011;68315;48.608;11.436;2023-06-22T06:57:33;9.65;;;5.50;;
78916;SDS011;68315;48.608;11.436;2023-06-22T06:59:59;7.70;;;5.22;;
78916;SDS011;68315;48.608;11.436;2023-06-22T07:02:25;11.43;;;6.25;;
78916;SDS011;68315;48.608;11.436;2023-06-22T07:04:52;8.15;;;5.35;;
78916;SDS011;68315;48.608;11.436;2023-06-22T07:07:20;9.32;;;5.47;;
78916;SDS011;68315;48.608;11.436;2023-06-22T07:09:46;7.50;;;4.35;;
78916;SDS011;68315;48.608;11.436;2023-06-22T07:12:11;8.40;;;3.88;;
78916;SDS011;68315;48.608;11.436;2023-06-22T07:14:36;6.63;;;4.20;;
78916;SDS011;68315;48.608;11.436;2023-06-22T07:17:01;8.50;;;4.50;;
78916;SDS011;68315;48.608;11.436;2023-06-22T07:19:27;7.32;;;3.80;;
78916;SDS011;68315;48.608;11.436;2023-06-22T07:21:53;6.28;;;3.53;;
78916;SDS011;68315;48.608;11.436;2023-06-22T07:24:20;6.38;;;4.20;;
78916;SDS011;68315;48.608;11.436;2023-06-22T07:26:49;5.10;;;3.42;;
78916;SDS011;68315;48.608;11.436;2023-06-22T07:29:18;8.80;;;3.95;;
78916;SDS011;68315;48.608;11.436;2023-06-22T07:31:47;8.18;;;3.72;;
78916;SDS011;68315;48.608;11.436;2023-06-22T07:34:15;7.50;;;3.75;;
78916;SDS011;68315;48.608;11.436;2023-06-22T07:36:40;10.55;;;4.05;;
78916;SDS011;68315;48.608;11.436;2023-06-22T07:39:05;5.68;;;3.33;;
78916;SDS011;68315;48.608;11.436;2023-06-22T07:41:31;6.13;;;3.42;;
78916;SDS011;68315;48.608;11.436;2023-06-22T07:43:56;8.65;;;3.80;;
78916;SDS011;68315;48.608;11.436;2023-06-22T07:46:22;7.97;;;3.50;;
78916;SDS011;68315;48.608;11.436;2023-06-22T07:48:48;7.50;;;3.65;;
78916;SDS011;68315;48.608;11.436;2023-06-22T07:51:13;7.70;;;4.00;;
78916;SDS011;68315;48.608;11.436;2023-06-22T07:53:40;21.70;;;5.40;;
78916;SDS011;68315;48.608;11.436;2023-06-22T07:56:06;10.82;;;3.85;;
78916;SDS011;68315;48.608;11.436;2023-06-22T07:58:32;6.35;;;3.72;;
78916;SDS011;68315;48.608;11.436;2023-06-22T08:00:58;6.38;;;3.60;;
78916;SDS011;68315;48.608;11.436;2023-06-22T08:06:20;8.88;;;3.92;;
78916;SDS011;68315;48.608;11.436;2023-06-22T08:08:46;10.18;;;3.85;;
78916;SDS011;68315;48.608;11.436;2023-06-22T08:11:13;7.40;;;3.90;;
78916;SDS011;68315;48.608;11.436;2023-06-22T08:13:38;8.10;;;3.83;;
78916;SDS011;68315;48.608;11.436;2023-06-22T08:16:04;11.52;;;4.00;;
78916;SDS011;68315;48.608;11.436;2023-06-22T08:18:29;10.82;;;4.18;;
78916;SDS011;68315;48.608;11.436;2023-06-22T08:20:55;5.95;;;3.90;;
78916;SDS011;68315;48.608;11.436;2023-06-22T08:23:20;6.53;;;4.25;;
78916;SDS011;68315;48.608;11.436;2023-06-22T08:25:45;10.27;;;4.07;;
78916;SDS011;68315;48.608;11.436;2023-06-22T08:28:11;8.57;;;4.07;;
78916;SDS011;68315;48.608;11.436;2023-06-22T08:30:38;9.25;;;4.32;;
78916;SDS011;68315;48.608;11.436;2023-06-22T08:33:03;11.73;;;4.22;;
78916;SDS011;68315;48.608;11.436;2023-06-22T08:35:28;8.00;;;4.03;;
78916;SDS011;68315;48.608;11.436;2023-06-22T08:37:54;10.98;;;4.80;;
78916;SDS011;68315;48.608;11.436;2023-06-22T08:40:21;9.02;;;4.60;;
78916;SDS011;68315;48.608;11.436;2023-06-22T08:42:48;6.03;;;3.90;;
78916;SDS011;68315;48.608;11.436;2023-06-22T08:45:14;9.27;;;4.00;;
78916;SDS011;68315;48.608;11.436;2023-06-22T08:47:39;7.53;;;4.10;;
78916;SDS011;68315;48.608;11.436;2023-06-22T08:50:06;8.40;;;4.22;;
78916;SDS011;68315;48.608;11.436;2023-06-22T08:52:35;7.65;;;4.40;;
78916;SDS011;68315;48.608;11.436;2023-06-22T08:55:02;9.13;;;4.10;;
78916;SDS011;68315;48.608;11.436;2023-06-22T08:57:28;9.85;;;4.53;;
78916;SDS011;68315;48.608;11.436;2023-06-22T08:59:54;7.38;;;4.53;;
78916;SDS011;68315;48.608;11.436;2023-06-22T09:02:23;9.27;;;4.70;;
78916;SDS011;68315;48.608;11.436;2023-06-22T09:04:48;8.02;;;4.18;;
78916;SDS011;68315;48.608;11.436;2023-06-22T09:07:14;8.48;;;5.13;;
78916;SDS011;68315;48.608;11.436;2023-06-22T09:09:47;7.40;;;4.50;;
78916;SDS011;68315;48.608;11.436;2023-06-22T09:12:12;9.00;;;4.40;;
78916;SDS011;68315;48.608;11.436;2023-06-22T09:14:37;8.50;;;4.53;;
78916;SDS011;68315;48.608;11.436;2023-06-22T09:17:02;9.57;;;4.23;;
78916;SDS011;68315;48.608;11.436;2023-06-22T09:19:28;9.32;;;4.00;;
78916;SDS011;68315;48.608;11.436;2023-06-22T09:21:53;10.03;;;5.00;;
78916;SDS011;68315;48.608;11.436;2023-06-22T09:24:19;8.90;;;4.30;;
78916;SDS011;68315;48.608;11.436;2023-06-22T09:26:44;12.73;;;5.25;;
78916;SDS011;68315;48.608;11.436;2023-06-22T09:29:09;9.40;;;4.47;;
78916;SDS011;68315;48.608;11.436;2023-06-22T09:31:34;10.60;;;4.17;;
78916;SDS011;68315;48.608;11.436;2023-06-22T09:34:00;10.40;;;4.63;;
78916;SDS011;68315;48.608;11.436;2023-06-22T09:36:25;7.60;;;4.47;;
78916;SDS011;68315;48.608;11.436;2023-06-22T09:38:50;12.87;;;4.57;;
78916;SDS011;68315;48.608;11.436;2023-06-22T09:41:23;9.90;;;4.70;;
78916;SDS011;68315;48.608;11.436;2023-06-22T09:43:49;9.93;;;4.38;;
78916;SDS011;68315;48.608;11.436;2023-06-22T09:46:15;14.32;;;5.28;;
78916;SDS011;68315;48.608;11.436;2023-06-22T09:48:41;13.93;;;4.88;;
78916;SDS011;68315;48.608;11.436;2023-06-22T09:51:06;8.52;;;4.45;;
78916;SDS011;68315;48.608;11.436;2023-06-22T09:53:31;11.38;;;4.70;;
78916;SDS011;68315;48.608;11.436;2023-06-22T09:55:57;12.82;;;5.75;;
78916;SDS011;68315;48.608;11.436;2023-06-22T09:58:22;7.63;;;4.03;;
78916;SDS011;68315;48.608;11.436;2023-06-22T10:00:48;10.55;;;5.18;;
78916;SDS011;68315;48.608;11.436;2023-06-22T10:03:13;16.37;;;5.20;;
78916;SDS011;68315;48.608;11.436;2023-06-22T10:05:38;13.90;;;4.77;;
78916;SDS011;68315;48.608;11.436;2023-06-22T10:08:04;8.67;;;3.90;;
78916;SDS011;68315;48.608;11.436;2023-06-22T10:10:29;9.68;;;4.95;;
78916;SDS011;68315;48.608;11.436;2023-06-22T10:12:55;11.57;;;4.60;;
78916;SDS011;68315;48.608;11.436;2023-06-22T10:15:22;8.88;;;4.10;;
78916;SDS011;68315;48.608;11.436;2023-06-22T10:17:48;7.57;;;4.25;;
78916;SDS011;68315;48.608;11.436;2023-06-22T10:20:13;6.35;;;4.03;;
78916;SDS011;68315;48.608;11.436;2023-06-22T10:22:40;9.13;;;4.38;;
78916;SDS011;68315;48.608;11.436;2023-06-22T10:25:06;9.38;;;4.20;;
78916;SDS011;68315;48.608;11.436;2023-06-22T10:27:32;7.75;;;4.50;;
78916;SDS011;68315;48.608;11.436;2023-06-22T10:29:57;9.27;;;4.65;;
78916;SDS011;68315;48.608;11.436;2023-06-22T10:32:23;11.27;;;4.45;;
78916;SDS011;68315;48.608;11.436;2023-06-22T10:34:48;10.80;;;4.57;;
78916;SDS011;68315;48.608;11.436;2023-06-22T10:37:13;10.45;;;4.75;;
78916;SDS011;68315;48.608;11.436;2023-06-22T10:39:39;7.57;;;3.95;;
78916;SDS011;68315;48.608;11.436;2023-06-22T10:42:04;8.25;;;4.60;;
78916;SDS011;68315;48.608;11.436;2023-06-22T10:44:30;8.55;;;4.22;;
78916;SDS011;68315;48.608;11.436;2023-06-22T10:46:55;9.13;;;4.50;;
78916;SDS011;68315;48.608;11.436;2023-06-22T10:49:20;6.53;;;3.70;;
78916;SDS011;68315;48.608;11.436;2023-06-22T10:51:46;7.60;;;3.83;;
78916;SDS011;68315;48.608;11.436;2023-06-22T10:54:11;9.10;;;4.30;;
78916;SDS011;68315;48.608;11.436;2023-06-22T10:56:38;10.63;;;4.43;;
78916;SDS011;68315;48.608;11.436;2023-06-22T10:59:04;12.13;;;4.63;;
78916;SDS011;68315;48.608;11.436;2023-06-22T11:01:29;9.23;;;3.70;;
78916;SDS011;68315;48.608;11.436;2023-06-22T11:03:56;9.10;;;4.03;;
78916;SDS011;68315;48.608;11.436;2023-06-22T11:06:22;9.70;;;4.13;;
78916;SDS011;68315;48.608;11.436;2023-06-22T11:08:47;9.55;;;4.32;;
78916;SDS011;68315;48.608;11.436;2023-06-22T11:11:12;10.52;;;4.70;;
78916;SDS011;68315;48.608;11.436;2023-06-22T11:13:37;9.30;;;4.63;;
78916;SDS011;68315;48.608;11.436;2023-06-22T11:16:03;10.87;;;4.87;;
78916;SDS011;68315;48.608;11.436;2023-06-22T11:18:28;8.98;;;4.50;;
78916;SDS011;68315;48.608;11.436;2023-06-22T11:20:53;7.45;;;4.57;;
78916;SDS011;68315;48.608;11.436;2023-06-22T11:23:19;7.57;;;4.18;;
78916;SDS011;68315;48.608;11.436;2023-06-22T11:25:44;8.13;;;4.45;;
78916;SDS011;68315;48.608;11.436;2023-06-22T11:28:11;9.45;;;4.25;;
78916;SDS011;68315;48.608;11.436;2023-06-22T11:30:36;10.77;;;3.83;;
78916;SDS011;68315;48.608;11.436;2023-06-22T11:33:02;9.63;;;4.60;;
78916;SDS011;68315;48.608;11.436;2023-06-22T11:35:27;6.78;;;3.72;;
78916;SDS011;68315;48.608;11.436;2023-06-22T11:37:52;6.13;;;3.42;;
78916;SDS011;68315;48.608;11.436;2023-06-22T11:40:21;8.65;;;4.38;;
78916;SDS011;68315;48.608;11.436;2023-06-22T11:42:47;11.55;;;5.07;;
78916;SDS011;68315;48.608;11.436;2023-06-22T11:45:13;10.47;;;4.53;;
78916;SDS011;68315;48.608;11.436;2023-06-22T11:47:38;8.93;;;4.35;;
78916;SDS011;68315;48.608;11.436;2023-06-22T11:50:04;9.35;;;4.13;;
78916;SDS011;68315;48.608;11.436;2023-06-22T11:52:36;12.25;;;4.85;;
78916;SDS011;68315;48.608;11.436;2023-06-22T11:55:01;5.40;;;3.08;;
78916;SDS011;68315;48.608;11.436;2023-06-22T11:57:28;8.50;;;4.22;;
78916;SDS011;68315;48.608;11.436;2023-06-22T11:59:57;8.27;;;3.65;;
78916;SDS011;68315;48.608;11.436;2023-06-22T12:02:22;8.35;;;4.25;;
78916;SDS011;68315;48.608;11.436;2023-06-22T12:04:50;8.93;;;4.07;;
78916;SDS011;68315;48.608;11.436;2023-06-22T12:07:17;8.38;;;4.20;;
78916;SDS011;68315;48.608;11.436;2023-06-22T12:09:43;9.65;;;4.55;;
78916;SDS011;68315;48.608;11.436;2023-06-22T12:12:09;11.40;;;4.80;;
78916;SDS011;68315;48.608;11.436;2023-06-22T12:14:34;6.07;;;3.67;;
78916;SDS011;68315;48.608;11.436;2023-06-22T12:17:02;7.47;;;4.55;;
78916;SDS011;68315;48.608;11.436;2023-06-22T12:19:27;8.73;;;4.13;;
78916;SDS011;68315;48.608;11.436;2023-06-22T12:21:53;8.07;;;4.05;;
78916;SDS011;68315;48.608;11.436;2023-06-22T12:24:22;9.65;;;4.57;;
78916;SDS011;68315;48.608;11.436;2023-06-22T12:26:47;7.68;;;3.90;;
78916;SDS011;68315;48.608;11.436;2023-06-22T12:29:13;9.00;;;4.00;;
78916;SDS011;68315;48.608;11.436;2023-06-22T12:31:38;9.67;;;4.17;;
78916;SDS011;68315;48.608;11.436;2023-06-22T12:34:04;8.27;;;4.07;;
78916;SDS011;68315;48.608;11.436;2023-06-22T12:36:29;9.85;;;4.15;;
78916;SDS011;68315;48.608;11.436;2023-06-22T12:38:55;8.03;;;3.77;;
78916;SDS011;68315;48.608;11.436;2023-06-22T12:41:20;8.25;;;4.03;;
78916;SDS011;68315;48.608;11.436;2023-06-22T12:43:46;11.82;;;4.65;;
78916;SDS011;68315;48.608;11.436;2023-06-22T12:46:11;11.20;;;4.88;;
78916;SDS011;68315;48.608;11.436;2023-06-22T12:48:37;10.30;;;4.47;;
78916;SDS011;68315;48.608;11.436;2023-06-22T12:51:07;11.43;;;4.38;;
78916;SDS011;68315;48.608;11.436;2023-06-22T12:53:34;10.77;;;4.05;;
78916;SDS011;68315;48.608;11.436;2023-06-22T12:55:59;11.10;;;4.10;;
78916;SDS011;68315;48.608;11.436;2023-06-22T12:58:25;12.57;;;4.82;;
78916;SDS011;68315;48.608;11.436;2023-06-22T13:00:50;6.57;;;3.67;;
78916;SDS011;68315;48.608;11.436;2023-06-22T13:03:15;7.97;;;4.07;;
78916;SDS011;68315;48.608;11.436;2023-06-22T13:05:41;7.37;;;4.30;;
78916;SDS011;68315;48.608;11.436;2023-06-22T13:08:06;10.18;;;4.65;;
78916;SDS011;68315;48.608;11.436;2023-06-22T13:10:31;9.45;;;4.43;;
78916;SDS011;68315;48.608;11.436;2023-06-22T13:12:58;10.13;;;4.78;;
78916;SDS011;68315;48.608;11.436;2023-06-22T13:15:27;5.78;;;4.10;;
78916;SDS011;68315;48.608;11.436;2023-06-22T13:17:55;6.43;;;3.80;;
78916;SDS011;68315;48.608;11.436;2023-06-22T13:20:21;8.27;;;4.55;;
78916;SDS011;68315;48.608;11.436;2023-06-22T13:22:46;10.77;;;5.43;;
78916;SDS011;68315;48.608;11.436;2023-06-22T13:25:11;10.45;;;4.95;;
78916;SDS011;68315;48.608;11.436;2023-06-22T13:27:40;14.20;;;4.88;;
78916;SDS011;68315;48.608;11.436;2023-06-22T13:30:07;8.77;;;3.95;;
78916;SDS011;68315;48.608;11.436;2023-06-22T13:32:33;5.97;;;3.97;;
78916;SDS011;68315;48.608;11.436;2023-06-22T13:34:58;6.83;;;3.60;;
78916;SDS011;68315;48.608;11.436;2023-06-22T13:37:23;8.73;;;4.30;;
78916;SDS011;68315;48.608;11.436;2023-06-22T13:39:49;17.33;;;5.27;;
78916;SDS011;68315;48.608;11.436;2023-06-22T13:42:14;9.33;;;5.33;;
78916;SDS011;68315;48.608;11.436;2023-06-22T13:44:39;9.75;;;4.47;;
78916;SDS011;68315;48.608;11.436;2023-06-22T13:47:05;7.03;;;4.20;;
78916;SDS011;68315;48.608;11.436;2023-06-22T13:49:31;14.75;;;5.38;;
78916;SDS011;68315;48.608;11.436;2023-06-22T13:51:56;7.88;;;4.25;;
78916;SDS011;68315;48.608;11.436;2023-06-22T13:54:22;8.35;;;4.28;;
78916;SDS011;68315;48.608;11.436;2023-06-22T13:56:47;6.13;;;3.72;;
78916;SDS011;68315;48.608;11.436;2023-06-22T13:59:12;10.18;;;4.55;;
78916;SDS011;68315;48.608;11.436;2023-06-22T14:01:38;10.25;;;4.38;;
78916;SDS011;68315;48.608;11.436;2023-06-22T14:04:09;6.18;;;4.10;;
78916;SDS011;68315;48.608;11.436;2023-06-22T14:06:35;7.70;;;3.92;;
78916;SDS011;68315;48.608;11.436;2023-06-22T14:09:00;7.28;;;4.00;;
78916;SDS011;68315;48.608;11.436;2023-06-22T14:11:25;6.60;;;3.80;;
78916;SDS011;68315;48.608;11.436;2023-06-22T14:13:51;9.43;;;4.20;;
78916;SDS011;68315;48.608;11.436;2023-06-22T14:16:17;7.20;;;4.63;;
78916;SDS011;68315;48.608;11.436;2023-06-22T14:18:42;8.30;;;4.00;;
78916;SDS011;68315;48.608;11.436;2023-06-22T14:21:07;8.80;;;4.60;;
78916;SDS011;68315;48.608;11.436;2023-06-22T14:23:33;6.80;;;4.05;;
78916;SDS011;68315;48.608;11.436;2023-06-22T14:25:58;5.78;;;3.30;;
78916;SDS011;68315;48.608;11.436;2023-06-22T14:28:23;5.03;;;3.13;;